sensor_id;sensor_type;location;lat;lon;timestamp;pressure;altitude;pressure_sealevel;temperature;humidity
10462;BME280;5278;42.656;23.374;2023-07-31T00:00:15;94267.41;;;27.33;58.33
10462;BME280;5278;42.656;23.374;2023-07-31T00:02:42;94264.28;;;27.26;59.03
10462;BME280;5278;42.656;23.374;2023-07-31T00:05:09;94277.50;;;27.36;58.55
10462;BME280;5278;42.656;23.374;2023-07-31T00:07:36;94273.56;;;27.33;58.56
10462;BME280;5278;42.656;23.374;2023-07-31T00:10:04;94289.06;;;27.31;58.87
10462;BME280;5278;42.656;23.374;2023-07-31T00:12:33;94285.81;;;27.34;60.24
10462;BME280;5278;42.656;23.374;2023-07-31T00:15:00;94280.97;;;27.36;59.82
10462;BME280;5278;42.656;23.374;2023-07-31T00:17:28;94282.66;;;27.51;58.70
10462;BME280;5278;42.656;23.374;2023-07-31T00:19:55;94276.25;;;27.52;60.22
10462;BME280;5278;42.656;23.374;2023-07-31T00:22:22;94275.00;;;27.45;60.39
10462;BME280;5278;42.656;23.374;2023-07-31T00:24:50;94280.84;;;27.47;60.11
10462;BME280;5278;42.656;23.374;2023-07-31T00:27:17;94279.44;;;27.54;59.14
10462;BME280;5278;42.656;23.374;2023-07-31T00:29:45;94263.41;;;27.54;58.57
10462;BME280;5278;42.656;23.374;2023-07-31T00:32:12;94267.31;;;27.62;58.46
10462;BME280;5278;42.656;23.374;2023-07-31T00:34:39;94252.94;;;27.58;58.39
10462;BME280;5278;42.656;23.374;2023-07-31T00:37:06;94250.34;;;27.53;58.14
10462;BME280;5278;42.656;23.374;2023-07-31T00:39:34;94250.63;;;27.51;58.49
10462;BME280;5278;42.656;23.374;2023-07-31T00:42:01;94246.72;;;27.44;58.33
10462;BME280;5278;42.656;23.374;2023-07-31T00:44:28;94247.72;;;27.48;58.22
10462;BME280;5278;42.656;23.374;2023-07-31T00:46:57;94254.94;;;27.47;58.40
10462;BME280;5278;42.656;23.374;2023-07-31T00:49:25;94246.72;;;27.44;58.44
10462;BME280;5278;42.656;23.374;2023-07-31T00:51:52;94255.50;;;27.25;58.59
10462;BME280;5278;42.656;23.374;2023-07-31T00:54:22;94256.22;;;27.31;59.08
10462;BME280;5278;42.656;23.374;2023-07-31T00:56:50;94264.22;;;27.31;59.11
10462;BME280;5278;42.656;23.374;2023-07-31T00:59:19;94245.28;;;27.32;58.99
10462;BME280;5278;42.656;23.374;2023-07-31T01:01:46;94255.22;;;27.27;59.05
10462;BME280;5278;42.656;23.374;2023-07-31T01:04:15;94247.53;;;27.02;60.23
10462;BME280;5278;42.656;23.374;2023-07-31T01:06:48;94233.91;;;27.03;60.19
10462;BME280;5278;42.656;23.374;2023-07-31T01:09:29;94242.00;;;27.17;60.04
10462;BME280;5278;42.656;23.374;2023-07-31T01:12:02;94234.00;;;27.17;60.22
10462;BME280;5278;42.656;23.374;2023-07-31T01:14:30;94224.25;;;27.07;61.27
10462;BME280;5278;42.656;23.374;2023-07-31T01:16:57;94233.72;;;27.18;61.64
10462;BME280;5278;42.656;23.374;2023-07-31T01:19:26;94240.34;;;27.21;62.48
10462;BME280;5278;42.656;23.374;2023-07-31T01:22:12;94230.53;;;27.16;61.31
10462;BME280;5278;42.656;23.374;2023-07-31T01:24:55;94230.53;;;27.16;61.19
10462;BME280;5278;42.656;23.374;2023-07-31T01:27:30;94225.31;;;27.06;61.45
10462;BME280;5278;42.656;23.374;2023-07-31T01:30:02;94226.13;;;27.07;61.96
10462;BME280;5278;42.656;23.374;2023-07-31T01:32:36;94224.91;;;26.99;62.66
10462;BME280;5278;42.656;23.374;2023-07-31T01:35:06;94216.50;;;26.87;61.96
10462;BME280;5278;42.656;23.374;2023-07-31T01:37:34;94224.84;;;27.04;62.49
10462;BME280;5278;42.656;23.374;2023-07-31T01:40:01;94229.66;;;27.02;62.25
10462;BME280;5278;42.656;23.374;2023-07-31T01:42:30;94225.97;;;26.98;62.65
10462;BME280;5278;42.656;23.374;2023-07-31T01:44:57;94179.38;;;26.67;62.48
10462;BME280;5278;42.656;23.374;2023-07-31T01:47:24;94219.06;;;26.97;62.54
10462;BME280;5278;42.656;23.374;2023-07-31T01:49:51;94216.31;;;26.78;62.82
10462;BME280;5278;42.656;23.374;2023-07-31T01:52:18;94219.41;;;26.85;63.11
10462;BME280;5278;42.656;23.374;2023-07-31T01:54:45;94216.75;;;26.85;63.14
10462;BME280;5278;42.656;23.374;2023-07-31T01:57:11;94226.78;;;26.75;63.51
10462;BME280;5278;42.656;23.374;2023-07-31T01:59:40;94222.22;;;26.75;63.78
10462;BME280;5278;42.656;23.374;2023-07-31T02:02:07;94224.81;;;26.80;63.60
10462;BME280;5278;42.656;23.374;2023-07-31T02:04:34;94227.53;;;26.75;63.84
10462;BME280;5278;42.656;23.374;2023-07-31T02:07:01;94231.53;;;26.78;64.20
10462;BME280;5278;42.656;23.374;2023-07-31T02:09:28;94232.88;;;26.75;63.96
10462;BME280;5278;42.656;23.374;2023-07-31T02:11:55;94229.44;;;26.75;64.14
10462;BME280;5278;42.656;23.374;2023-07-31T02:14:22;94237.88;;;26.82;63.84
10462;BME280;5278;42.656;23.374;2023-07-31T02:16:51;94239.25;;;26.79;64.01
10462;BME280;5278;42.656;23.374;2023-07-31T02:19:18;94243.66;;;26.65;64.43
10462;BME280;5278;42.656;23.374;2023-07-31T02:21:45;94238.63;;;26.64;64.57
10462;BME280;5278;42.656;23.374;2023-07-31T02:24:12;94232.50;;;26.63;64.60
10462;BME280;5278;42.656;23.374;2023-07-31T02:26:39;94254.22;;;26.75;64.64
10462;BME280;5278;42.656;23.374;2023-07-31T02:29:07;94252.88;;;26.78;64.50
10462;BME280;5278;42.656;23.374;2023-07-31T02:31:34;94246.47;;;26.79;64.43
10462;BME280;5278;42.656;23.374;2023-07-31T02:34:03;94248.72;;;26.90;64.22
10462;BME280;5278;42.656;23.374;2023-07-31T02:36:30;94245.72;;;26.97;64.00
10462;BME280;5278;42.656;23.374;2023-07-31T02:38:57;94244.00;;;27.06;63.49
10462;BME280;5278;42.656;23.374;2023-07-31T02:41:24;94247.19;;;27.08;63.49
10462;BME280;5278;42.656;23.374;2023-07-31T02:43:51;94242.66;;;27.09;63.29
10462;BME280;5278;42.656;23.374;2023-07-31T02:46:19;94240.38;;;26.97;63.31
10462;BME280;5278;42.656;23.374;2023-07-31T02:48:49;94249.34;;;27.06;63.52
10462;BME280;5278;42.656;23.374;2023-07-31T02:51:18;94257.00;;;27.13;63.20
10462;BME280;5278;42.656;23.374;2023-07-31T02:53:46;94251.41;;;27.14;63.92
10462;BME280;5278;42.656;23.374;2023-07-31T02:56:13;94250.94;;;27.07;64.50
10462;BME280;5278;42.656;23.374;2023-07-31T02:58:40;94257.88;;;27.08;64.29
10462;BME280;5278;42.656;23.374;2023-07-31T03:01:07;94260.25;;;27.10;63.95
10462;BME280;5278;42.656;23.374;2023-07-31T03:03:34;94241.06;;;27.08;63.50
10462;BME280;5278;42.656;23.374;2023-07-31T03:06:01;94262.19;;;27.04;63.71
10462;BME280;5278;42.656;23.374;2023-07-31T03:08:29;94258.81;;;27.17;63.93
10462;BME280;5278;42.656;23.374;2023-07-31T03:10:56;94263.69;;;27.10;63.63
10462;BME280;5278;42.656;23.374;2023-07-31T03:13:23;94261.47;;;26.98;64.07
10462;BME280;5278;42.656;23.374;2023-07-31T03:15:51;94264.13;;;26.98;64.07
10462;BME280;5278;42.656;23.374;2023-07-31T03:18:17;94270.38;;;26.89;64.46
10462;BME280;5278;42.656;23.374;2023-07-31T03:20:44;94270.69;;;26.82;65.56
10462;BME280;5278;42.656;23.374;2023-07-31T03:23:11;94272.53;;;26.87;64.60
10462;BME280;5278;42.656;23.374;2023-07-31T03:25:55;94271.81;;;26.76;64.89
10462;BME280;5278;42.656;23.374;2023-07-31T03:28:22;94273.06;;;26.84;64.40
10462;BME280;5278;42.656;23.374;2023-07-31T03:30:49;94278.41;;;26.84;64.37
10462;BME280;5278;42.656;23.374;2023-07-31T03:33:16;94275.22;;;26.82;64.65
10462;BME280;5278;42.656;23.374;2023-07-31T03:35:43;94277.22;;;26.95;64.22
10462;BME280;5278;42.656;23.374;2023-07-31T03:38:10;94273.13;;;27.03;64.35
10462;BME280;5278;42.656;23.374;2023-07-31T03:40:37;94258.06;;;26.93;65.29
10462;BME280;5278;42.656;23.374;2023-07-31T03:43:05;94286.81;;;26.96;67.00
10462;BME280;5278;42.656;23.374;2023-07-31T03:45:32;94283.06;;;26.97;65.82
10462;BME280;5278;42.656;23.374;2023-07-31T03:47:59;94283.88;;;26.97;65.08
10462;BME280;5278;42.656;23.374;2023-07-31T03:50:26;94281.53;;;26.91;65.90
10462;BME280;5278;42.656;23.374;2023-07-31T03:52:54;94282.56;;;26.95;64.96
10462;BME280;5278;42.656;23.374;2023-07-31T03:55:20;94288.06;;;27.04;64.54
10462;BME280;5278;42.656;23.374;2023-07-31T03:57:48;94294.53;;;26.97;64.36
10462;BME280;5278;42.656;23.374;2023-07-31T04:00:16;94289.47;;;26.96;64.09
10462;BME280;5278;42.656;23.374;2023-07-31T04:02:44;94286.06;;;26.90;64.71
10462;BME280;5278;42.656;23.374;2023-07-31T04:05:11;94297.03;;;26.89;64.07
10462;BME280;5278;42.656;23.374;2023-07-31T04:07:38;94291.50;;;26.80;64.47
10462;BME280;5278;42.656;23.374;2023-07-31T04:10:05;94294.78;;;26.72;64.98
10462;BME280;5278;42.656;23.374;2023-07-31T04:12:32;94299.91;;;26.69;64.97
10462;BME280;5278;42.656;23.374;2023-07-31T04:14:59;94293.81;;;26.63;65.36
10462;BME280;5278;42.656;23.374;2023-07-31T04:17:28;94283.69;;;26.60;65.39
10462;BME280;5278;42.656;23.374;2023-07-31T04:19:55;94300.88;;;26.78;65.14
10462;BME280;5278;42.656;23.374;2023-07-31T04:22:22;94303.25;;;26.79;64.98
10462;BME280;5278;42.656;23.374;2023-07-31T04:24:49;94306.91;;;26.88;64.62
10462;BME280;5278;42.656;23.374;2023-07-31T04:27:17;94313.84;;;26.89;65.15
10462;BME280;5278;42.656;23.374;2023-07-31T04:29:45;94311.88;;;26.95;63.65
10462;BME280;5278;42.656;23.374;2023-07-31T04:32:13;94314.50;;;27.00;64.09
10462;BME280;5278;42.656;23.374;2023-07-31T04:34:43;94304.28;;;27.07;63.34
10462;BME280;5278;42.656;23.374;2023-07-31T04:37:10;94314.63;;;27.14;63.79
10462;BME280;5278;42.656;23.374;2023-07-31T04:39:37;94316.66;;;27.22;62.70
10462;BME280;5278;42.656;23.374;2023-07-31T04:42:04;94304.06;;;27.27;63.95
10462;BME280;5278;42.656;23.374;2023-07-31T04:44:31;94310.06;;;27.38;64.12
10462;BME280;5278;42.656;23.374;2023-07-31T04:46:58;94309.78;;;27.39;62.56
10462;BME280;5278;42.656;23.374;2023-07-31T04:49:25;94306.31;;;27.39;62.16
10462;BME280;5278;42.656;23.374;2023-07-31T04:51:54;94303.47;;;27.30;61.81
10462;BME280;5278;42.656;23.374;2023-07-31T04:54:20;94309.91;;;27.29;61.46
10462;BME280;5278;42.656;23.374;2023-07-31T04:56:47;94304.13;;;27.22;61.50
10462;BME280;5278;42.656;23.374;2023-07-31T04:59:14;94308.94;;;27.20;61.41
10462;BME280;5278;42.656;23.374;2023-07-31T05:01:41;94300.44;;;27.18;61.41
10462;BME280;5278;42.656;23.374;2023-07-31T05:04:12;94299.06;;;27.21;61.04
10462;BME280;5278;42.656;23.374;2023-07-31T05:06:41;94302.72;;;27.25;60.89
10462;BME280;5278;42.656;23.374;2023-07-31T05:09:10;94301.72;;;27.45;60.06
10462;BME280;5278;42.656;23.374;2023-07-31T05:11:37;94292.78;;;27.73;59.57
10462;BME280;5278;42.656;23.374;2023-07-31T05:14:05;94296.88;;;28.03;58.29
10462;BME280;5278;42.656;23.374;2023-07-31T05:16:33;94314.06;;;28.15;58.03
10462;BME280;5278;42.656;23.374;2023-07-31T05:18:59;94301.13;;;28.22;57.15
10462;BME280;5278;42.656;23.374;2023-07-31T05:21:26;94294.72;;;28.23;57.63
10462;BME280;5278;42.656;23.374;2023-07-31T05:23:53;94321.69;;;28.41;56.88
10462;BME280;5278;42.656;23.374;2023-07-31T05:26:22;94292.59;;;28.53;56.50
10462;BME280;5278;42.656;23.374;2023-07-31T05:28:49;94285.94;;;28.50;56.23
10462;BME280;5278;42.656;23.374;2023-07-31T05:31:15;94291.19;;;28.42;56.76
10462;BME280;5278;42.656;23.374;2023-07-31T05:33:42;94293.16;;;28.50;56.19
10462;BME280;5278;42.656;23.374;2023-07-31T05:36:10;94289.75;;;28.63;55.15
10462;BME280;5278;42.656;23.374;2023-07-31T05:38:37;94279.84;;;28.63;55.38
10462;BME280;5278;42.656;23.374;2023-07-31T05:41:04;94289.97;;;28.80;54.14
10462;BME280;5278;42.656;23.374;2023-07-31T05:43:36;94294.53;;;28.80;54.59
10462;BME280;5278;42.656;23.374;2023-07-31T05:46:03;94293.97;;;28.96;54.62
10462;BME280;5278;42.656;23.374;2023-07-31T05:48:30;94297.03;;;29.03;53.82
10462;BME280;5278;42.656;23.374;2023-07-31T05:50:57;94298.91;;;29.17;53.17
10462;BME280;5278;42.656;23.374;2023-07-31T05:53:24;94295.44;;;29.43;51.90
10462;BME280;5278;42.656;23.374;2023-07-31T05:55:51;94299.97;;;29.57;51.54
10462;BME280;5278;42.656;23.374;2023-07-31T05:58:18;94300.41;;;29.36;52.23
10462;BME280;5278;42.656;23.374;2023-07-31T06:00:47;94299.34;;;29.73;50.61
10462;BME280;5278;42.656;23.374;2023-07-31T06:03:13;94305.69;;;30.35;48.90
10462;BME280;5278;42.656;23.374;2023-07-31T06:05:40;94308.69;;;30.56;47.88
10462;BME280;5278;42.656;23.374;2023-07-31T06:08:07;94311.22;;;30.61;47.74
10462;BME280;5278;42.656;23.374;2023-07-31T06:10:34;94308.50;;;30.53;47.90
10462;BME280;5278;42.656;23.374;2023-07-31T06:13:01;94309.53;;;30.43;48.17
10462;BME280;5278;42.656;23.374;2023-07-31T06:15:28;94313.00;;;30.21;48.27
10462;BME280;5278;42.656;23.374;2023-07-31T06:17:57;94310.63;;;30.20;47.22
10462;BME280;5278;42.656;23.374;2023-07-31T06:20:27;94301.84;;;30.06;48.24
10462;BME280;5278;42.656;23.374;2023-07-31T06:22:54;94306.22;;;30.24;47.49
10462;BME280;5278;42.656;23.374;2023-07-31T06:25:21;94292.94;;;30.41;46.90
10462;BME280;5278;42.656;23.374;2023-07-31T06:27:48;94311.59;;;30.68;45.86
10462;BME280;5278;42.656;23.374;2023-07-31T06:30:15;94299.72;;;31.31;43.63
10462;BME280;5278;42.656;23.374;2023-07-31T06:32:42;94301.88;;;31.77;41.93
10462;BME280;5278;42.656;23.374;2023-07-31T06:35:10;94298.09;;;32.21;41.17
10462;BME280;5278;42.656;23.374;2023-07-31T06:37:37;94287.88;;;32.78;38.87
10462;BME280;5278;42.656;23.374;2023-07-31T06:40:06;94290.19;;;32.97;39.38
10462;BME280;5278;42.656;23.374;2023-07-31T06:42:34;94297.63;;;33.00;38.64
10462;BME280;5278;42.656;23.374;2023-07-31T06:45:01;94303.91;;;32.58;39.60
10462;BME280;5278;42.656;23.374;2023-07-31T06:47:29;94303.41;;;32.73;39.39
10462;BME280;5278;42.656;23.374;2023-07-31T06:49:56;94296.91;;;32.74;39.22
10462;BME280;5278;42.656;23.374;2023-07-31T06:52:24;94304.31;;;32.85;38.83
10462;BME280;5278;42.656;23.374;2023-07-31T06:55:01;94298.97;;;33.23;38.04
10462;BME280;5278;42.656;23.374;2023-07-31T06:57:29;94307.56;;;33.46;37.83
10462;BME280;5278;42.656;23.374;2023-07-31T06:59:56;94307.22;;;33.27;37.80
10462;BME280;5278;42.656;23.374;2023-07-31T07:02:23;94313.31;;;32.98;38.20
10462;BME280;5278;42.656;23.374;2023-07-31T07:04:51;94299.34;;;33.05;38.09
10462;BME280;5278;42.656;23.374;2023-07-31T07:07:18;94303.41;;;32.81;38.47
10462;BME280;5278;42.656;23.374;2023-07-31T07:09:46;94298.97;;;33.23;36.83
10462;BME280;5278;42.656;23.374;2023-07-31T07:12:13;94302.84;;;33.64;36.02
10462;BME280;5278;42.656;23.374;2023-07-31T07:14:40;94301.41;;;33.96;35.84
10462;BME280;5278;42.656;23.374;2023-07-31T07:17:07;94303.25;;;34.25;35.38
10462;BME280;5278;42.656;23.374;2023-07-31T07:19:34;94298.41;;;34.51;34.97
10462;BME280;5278;42.656;23.374;2023-07-31T07:22:01;94303.03;;;34.95;33.82
10462;BME280;5278;42.656;23.374;2023-07-31T07:24:28;94309.16;;;35.29;32.42
10462;BME280;5278;42.656;23.374;2023-07-31T07:26:58;94308.06;;;35.66;32.07
10462;BME280;5278;42.656;23.374;2023-07-31T07:29:25;94310.16;;;35.85;32.29
10462;BME280;5278;42.656;23.374;2023-07-31T07:31:52;94306.09;;;35.79;31.25
10462;BME280;5278;42.656;23.374;2023-07-31T07:34:19;94310.75;;;35.66;31.55
10462;BME280;5278;42.656;23.374;2023-07-31T07:36:46;94311.84;;;35.77;31.79
10462;BME280;5278;42.656;23.374;2023-07-31T07:39:13;94306.31;;;35.13;32.35
10462;BME280;5278;42.656;23.374;2023-07-31T07:41:40;94309.94;;;34.72;33.22
10462;BME280;5278;42.656;23.374;2023-07-31T07:44:09;94316.88;;;34.61;33.12
10462;BME280;5278;42.656;23.374;2023-07-31T07:46:36;94314.56;;;34.18;33.46
10462;BME280;5278;42.656;23.374;2023-07-31T07:49:03;94318.38;;;33.76;34.52
10462;BME280;5278;42.656;23.374;2023-07-31T07:51:31;94314.22;;;33.49;35.16
10462;BME280;5278;42.656;23.374;2023-07-31T07:53:58;94314.47;;;33.85;34.13
10462;BME280;5278;42.656;23.374;2023-07-31T07:56:26;94319.06;;;34.68;33.25
10462;BME280;5278;42.656;23.374;2023-07-31T07:58:55;94320.75;;;35.29;32.61
10462;BME280;5278;42.656;23.374;2023-07-31T08:01:24;94322.91;;;35.85;31.83
10462;BME280;5278;42.656;23.374;2023-07-31T08:03:50;94318.31;;;36.13;30.49
10462;BME280;5278;42.656;23.374;2023-07-31T08:06:17;94320.78;;;36.86;29.73
10462;BME280;5278;42.656;23.374;2023-07-31T08:08:44;94319.50;;;37.58;28.57
10462;BME280;5278;42.656;23.374;2023-07-31T08:11:12;94310.44;;;37.85;27.48
10462;BME280;5278;42.656;23.374;2023-07-31T08:13:39;94304.34;;;38.27;26.58
10462;BME280;5278;42.656;23.374;2023-07-31T08:16:06;94313.94;;;38.59;26.57
10462;BME280;5278;42.656;23.374;2023-07-31T08:18:35;94321.28;;;38.78;26.63
10462;BME280;5278;42.656;23.374;2023-07-31T08:21:02;94321.03;;;39.29;26.23
10462;BME280;5278;42.656;23.374;2023-07-31T08:23:29;94316.63;;;39.43;26.10
10462;BME280;5278;42.656;23.374;2023-07-31T08:25:56;94310.94;;;39.29;25.98
10462;BME280;5278;42.656;23.374;2023-07-31T08:28:24;94306.09;;;39.19;25.82
10462;BME280;5278;42.656;23.374;2023-07-31T08:30:51;94313.16;;;38.59;26.72
10462;BME280;5278;42.656;23.374;2023-07-31T08:33:18;94316.72;;;38.24;26.79
10462;BME280;5278;42.656;23.374;2023-07-31T08:35:46;94311.41;;;38.31;26.82
10462;BME280;5278;42.656;23.374;2023-07-31T08:38:13;94321.50;;;38.69;26.39
10462;BME280;5278;42.656;23.374;2023-07-31T08:40:41;94314.84;;;39.32;25.44
10462;BME280;5278;42.656;23.374;2023-07-31T08:43:09;94314.91;;;39.58;25.45
10462;BME280;5278;42.656;23.374;2023-07-31T08:45:36;94314.69;;;39.21;25.54
10462;BME280;5278;42.656;23.374;2023-07-31T08:48:04;94295.75;;;39.51;25.11
10462;BME280;5278;42.656;23.374;2023-07-31T08:50:31;94317.38;;;40.49;23.99
10462;BME280;5278;42.656;23.374;2023-07-31T08:52:59;94312.59;;;40.72;23.49
10462;BME280;5278;42.656;23.374;2023-07-31T08:55:27;94309.75;;;41.39;22.74
10462;BME280;5278;42.656;23.374;2023-07-31T08:57:55;94314.09;;;41.98;22.15
10462;BME280;5278;42.656;23.374;2023-07-31T09:00:23;94308.84;;;42.34;21.42
10462;BME280;5278;42.656;23.374;2023-07-31T09:02:56;94312.00;;;41.81;21.72
10462;BME280;5278;42.656;23.374;2023-07-31T09:05:26;94307.31;;;41.75;22.21
10462;BME280;5278;42.656;23.374;2023-07-31T09:07:55;94312.28;;;40.81;23.34
10462;BME280;5278;42.656;23.374;2023-07-31T09:10:24;94312.78;;;40.23;24.25
10462;BME280;5278;42.656;23.374;2023-07-31T09:12:52;94304.81;;;39.58;24.24
10462;BME280;5278;42.656;23.374;2023-07-31T09:15:19;94306.97;;;40.25;24.07
10462;BME280;5278;42.656;23.374;2023-07-31T09:17:46;94307.16;;;41.09;22.52
10462;BME280;5278;42.656;23.374;2023-07-31T09:20:14;94300.81;;;41.97;21.57
10462;BME280;5278;42.656;23.374;2023-07-31T09:22:42;94298.47;;;42.78;20.77
10462;BME280;5278;42.656;23.374;2023-07-31T09:25:16;94296.63;;;43.64;20.16
10462;BME280;5278;42.656;23.374;2023-07-31T09:27:49;94292.94;;;44.38;19.70
10462;BME280;5278;42.656;23.374;2023-07-31T09:30:17;94293.38;;;44.15;19.33
10462;BME280;5278;42.656;23.374;2023-07-31T09:32:45;94290.28;;;42.89;20.76
10462;BME280;5278;42.656;23.374;2023-07-31T09:35:27;94267.25;;;43.43;19.92
10462;BME280;5278;42.656;23.374;2023-07-31T09:37:58;94279.41;;;43.53;19.78
10462;BME280;5278;42.656;23.374;2023-07-31T09:40:27;94279.19;;;42.43;20.34
10462;BME280;5278;42.656;23.374;2023-07-31T09:42:58;94286.47;;;41.52;21.72
10462;BME280;5278;42.656;23.374;2023-07-31T09:45:26;94285.50;;;40.57;22.80
10462;BME280;5278;42.656;23.374;2023-07-31T09:47:54;94274.50;;;39.34;24.01
10462;BME280;5278;42.656;23.374;2023-07-31T09:50:22;94308.13;;;38.61;25.31
10462;BME280;5278;42.656;23.374;2023-07-31T09:52:49;94278.50;;;38.94;24.77
10462;BME280;5278;42.656;23.374;2023-07-31T09:55:17;94270.94;;;39.82;24.08
10462;BME280;5278;42.656;23.374;2023-07-31T09:57:46;94251.72;;;40.28;23.04
10462;BME280;5278;42.656;23.374;2023-07-31T10:00:16;94267.09;;;40.80;23.08
10462;BME280;5278;42.656;23.374;2023-07-31T10:02:45;94277.69;;;41.29;23.07
10462;BME280;5278;42.656;23.374;2023-07-31T10:05:14;94275.25;;;42.40;21.31
10462;BME280;5278;42.656;23.374;2023-07-31T10:07:45;94277.38;;;42.79;20.48
10462;BME280;5278;42.656;23.374;2023-07-31T10:10:13;94277.56;;;41.66;21.38
10462;BME280;5278;42.656;23.374;2023-07-31T10:12:44;94267.81;;;40.40;22.51
10462;BME280;5278;42.656;23.374;2023-07-31T10:15:21;94273.56;;;39.75;23.64
10462;BME280;5278;42.656;23.374;2023-07-31T10:17:49;94265.16;;;39.84;23.26
10462;BME280;5278;42.656;23.374;2023-07-31T10:20:18;94267.50;;;39.59;23.49
10462;BME280;5278;42.656;23.374;2023-07-31T10:22:45;94263.06;;;39.02;24.07
10462;BME280;5278;42.656;23.374;2023-07-31T10:25:12;94267.75;;;38.59;24.67
10462;BME280;5278;42.656;23.374;2023-07-31T10:27:39;94235.97;;;38.63;24.56
10462;BME280;5278;42.656;23.374;2023-07-31T10:30:10;94262.97;;;38.33;25.06
10462;BME280;5278;42.656;23.374;2023-07-31T10:32:40;94270.31;;;37.60;25.69
10462;BME280;5278;42.656;23.374;2023-07-31T10:35:09;94265.19;;;37.07;26.20
10462;BME280;5278;42.656;23.374;2023-07-31T10:37:38;94251.16;;;38.07;25.64
10462;BME280;5278;42.656;23.374;2023-07-31T10:40:11;94254.66;;;39.33;23.27
10462;BME280;5278;42.656;23.374;2023-07-31T10:42:48;94256.97;;;39.57;23.43
10462;BME280;5278;42.656;23.374;2023-07-31T10:45:24;94244.00;;;40.70;22.52
10462;BME280;5278;42.656;23.374;2023-07-31T10:47:59;94218.94;;;42.25;20.78
10462;BME280;5278;42.656;23.374;2023-07-31T10:50:28;94240.66;;;43.58;19.80
10462;BME280;5278;42.656;23.374;2023-07-31T10:52:58;94245.34;;;43.57;19.00
10462;BME280;5278;42.656;23.374;2023-07-31T10:55:28;94239.81;;;43.82;18.81
10462;BME280;5278;42.656;23.374;2023-07-31T10:57:56;94242.66;;;44.62;18.38
10462;BME280;5278;42.656;23.374;2023-07-31T11:00:26;94215.88;;;44.80;18.05
10462;BME280;5278;42.656;23.374;2023-07-31T11:02:58;94203.84;;;45.63;17.31
10462;BME280;5278;42.656;23.374;2023-07-31T11:06:01;94227.81;;;45.15;17.72
10462;BME280;5278;42.656;23.374;2023-07-31T11:08:31;94229.31;;;43.52;18.77
10462;BME280;5278;42.656;23.374;2023-07-31T11:11:08;94226.56;;;42.88;19.56
10462;BME280;5278;42.656;23.374;2023-07-31T11:13:41;94221.53;;;41.90;20.95
10462;BME280;5278;42.656;23.374;2023-07-31T11:16:09;94232.06;;;40.85;21.54
10462;BME280;5278;42.656;23.374;2023-07-31T11:18:38;94211.78;;;40.09;22.29
10462;BME280;5278;42.656;23.374;2023-07-31T11:21:06;94227.09;;;40.58;21.47
10462;BME280;5278;42.656;23.374;2023-07-31T11:23:33;94225.16;;;40.58;21.35
10462;BME280;5278;42.656;23.374;2023-07-31T11:26:00;94236.34;;;39.83;22.00
10462;BME280;5278;42.656;23.374;2023-07-31T11:28:31;94227.09;;;39.35;22.30
10462;BME280;5278;42.656;23.374;2023-07-31T11:30:58;94218.00;;;39.50;22.43
10462;BME280;5278;42.656;23.374;2023-07-31T11:33:26;94231.44;;;39.16;22.53
10462;BME280;5278;42.656;23.374;2023-07-31T11:35:54;94229.41;;;38.26;23.29
10462;BME280;5278;42.656;23.374;2023-07-31T11:38:22;94223.47;;;37.63;24.53
10462;BME280;5278;42.656;23.374;2023-07-31T11:40:50;94224.50;;;37.23;24.84
10462;BME280;5278;42.656;23.374;2023-07-31T11:43:17;94220.84;;;37.00;24.90
10462;BME280;5278;42.656;23.374;2023-07-31T11:45:46;94224.00;;;36.71;24.67
10462;BME280;5278;42.656;23.374;2023-07-31T11:48:19;94205.75;;;36.12;26.49
10462;BME280;5278;42.656;23.374;2023-07-31T11:50:47;94222.72;;;35.69;27.10
10462;BME280;5278;42.656;23.374;2023-07-31T11:53:25;94211.47;;;35.42;27.39
10462;BME280;5278;42.656;23.374;2023-07-31T11:55:54;94213.84;;;35.32;28.06
10462;BME280;5278;42.656;23.374;2023-07-31T11:58:22;94209.72;;;35.62;28.09
10462;BME280;5278;42.656;23.374;2023-07-31T12:00:49;94215.06;;;35.99;28.41
10462;BME280;5278;42.656;23.374;2023-07-31T12:03:17;94212.59;;;35.94;27.47
10462;BME280;5278;42.656;23.374;2023-07-31T12:05:47;94212.84;;;35.89;27.77
10462;BME280;5278;42.656;23.374;2023-07-31T12:08:15;94203.72;;;36.09;27.19
10462;BME280;5278;42.656;23.374;2023-07-31T12:10:43;94204.63;;;36.41;25.73
10462;BME280;5278;42.656;23.374;2023-07-31T12:13:12;94202.69;;;36.57;25.92
10462;BME280;5278;42.656;23.374;2023-07-31T12:15:46;94208.13;;;36.41;25.97
10462;BME280;5278;42.656;23.374;2023-07-31T12:18:14;94207.53;;;36.63;25.50
10462;BME280;5278;42.656;23.374;2023-07-31T12:20:43;94150.28;;;36.49;26.00
10462;BME280;5278;42.656;23.374;2023-07-31T12:23:15;94196.56;;;36.44;26.38
10462;BME280;5278;42.656;23.374;2023-07-31T12:25:43;94173.78;;;35.74;27.26
10462;BME280;5278;42.656;23.374;2023-07-31T12:28:10;94175.72;;;35.61;27.76
10462;BME280;5278;42.656;23.374;2023-07-31T12:30:40;94193.84;;;35.73;26.98
10462;BME280;5278;42.656;23.374;2023-07-31T12:33:13;94193.97;;;35.76;27.43
10462;BME280;5278;42.656;23.374;2023-07-31T12:35:42;94193.31;;;35.55;27.74
10462;BME280;5278;42.656;23.374;2023-07-31T12:38:10;94185.91;;;35.28;28.49
10462;BME280;5278;42.656;23.374;2023-07-31T12:40:38;94172.88;;;34.93;28.82
10462;BME280;5278;42.656;23.374;2023-07-31T12:43:09;94191.34;;;34.91;29.54
10462;BME280;5278;42.656;23.374;2023-07-31T12:45:37;94173.53;;;34.66;29.09
10462;BME280;5278;42.656;23.374;2023-07-31T12:48:04;94180.84;;;34.66;28.93
10462;BME280;5278;42.656;23.374;2023-07-31T12:50:31;94180.75;;;34.62;29.19
10462;BME280;5278;42.656;23.374;2023-07-31T12:52:58;94190.47;;;34.30;29.25
10462;BME280;5278;42.656;23.374;2023-07-31T12:55:25;94164.56;;;34.17;29.48
10462;BME280;5278;42.656;23.374;2023-07-31T12:57:53;94168.00;;;34.17;29.01
10462;BME280;5278;42.656;23.374;2023-07-31T13:00:22;94169.16;;;34.17;29.34
10462;BME280;5278;42.656;23.374;2023-07-31T13:02:49;94180.28;;;34.15;28.91
10462;BME280;5278;42.656;23.374;2023-07-31T13:05:16;94164.22;;;34.19;28.83